Time;durP1;ratioP1;P1;durP2;ratioP2;P2;SDS_P1;SDS_P2;PMS_P1;PMS_P2;Temp;Humidity;BMP_temperature;BMP_pressure;BME280_temperature;BME280_humidity;BME280_pressure;Samples;Min_cycle;Max_cycle;Signal;HPM_P1;HPM_P2
2021/05/29 00:01:13;;;;;;;9.55;7.18;;;21.40;43.80;;;;;;5013660;28;20049;-64
2021/05/29 00:03:39;;;;;;;9.65;7.50;;;21.30;43.40;;;;;;5018480;28;20034;-64
2021/05/29 00:06:05;;;;;;;9.75;7.32;;;21.40;43.30;;;;;;5017508;28;20034;-64
2021/05/29 00:08:31;;;;;;;7.55;6.68;;;21.30;43.20;;;;;;5018836;28;20037;-64
2021/05/29 00:10:59;;;;;;;8.85;6.57;;;21.30;43.00;;;;;;5021144;28;20030;-63
2021/05/29 00:13:27;;;;;;;8.35;7.00;;;21.20;43.20;;;;;;5019422;28;20042;-64
2021/05/29 00:15:53;;;;;;;7.68;6.55;;;21.20;43.10;;;;;;5018714;28;20056;-64
2021/05/29 00:18:19;;;;;;;6.68;6.03;;;21.20;42.80;;;;;;5031398;28;20426;-64
2021/05/29 00:20:46;;;;;;;6.65;6.05;;;21.20;42.70;;;;;;5009666;28;20503;-64
2021/05/29 00:23:12;;;;;;;6.20;5.65;;;21.20;42.90;;;;;;5011435;28;20085;-64
2021/05/29 00:25:38;;;;;;;6.28;5.68;;;21.20;42.70;;;;;;5017989;28;20049;-64
2021/05/29 00:28:04;;;;;;;5.85;5.25;;;21.20;42.40;;;;;;5001831;28;20037;-64
2021/05/29 00:30:30;;;;;;;6.68;5.65;;;21.10;42.10;;;;;;5008925;28;20394;-64
2021/05/29 00:32:56;;;;;;;8.38;6.00;;;21.10;42.00;;;;;;5003710;28;20534;-64
2021/05/29 00:35:22;;;;;;;5.47;4.65;;;21.10;42.20;;;;;;5011723;28;20034;-64
2021/05/29 00:37:48;;;;;;;8.43;5.38;;;21.00;41.40;;;;;;5016290;28;20041;-64
2021/05/29 00:40:14;;;;;;;8.07;4.70;;;21.00;41.30;;;;;;5003868;28;20083;-64
2021/05/29 00:42:40;;;;;;;5.78;3.88;;;20.90;41.40;;;;;;5014963;28;20436;-65
2021/05/29 00:45:07;;;;;;;6.43;4.43;;;20.80;41.20;;;;;;4996671;28;20041;-64
2021/05/29 00:47:33;;;;;;;5.07;4.28;;;20.80;41.40;;;;;;5000553;28;20044;-65
2021/05/29 00:50:03;;;;;;;6.40;4.65;;;20.70;41.10;;;;;;5014187;28;20041;-64
2021/05/29 00:52:28;;;;;;;5.13;4.28;;;20.70;41.00;;;;;;5005769;28;20052;-64
2021/05/29 00:54:54;;;;;;;7.00;3.97;;;20.80;41.00;;;;;;5002870;28;20042;-64
2021/05/29 00:57:21;;;;;;;6.13;3.88;;;20.80;40.60;;;;;;5003570;28;20529;-64
2021/05/29 00:59:47;;;;;;;4.82;3.88;;;20.80;40.60;;;;;;5013935;28;20045;-65
2021/05/29 01:02:16;;;;;;;5.07;3.78;;;20.80;40.60;;;;;;5001799;28;20061;-64
2021/05/29 01:04:45;;;;;;;4.75;3.55;;;20.80;40.40;;;;;;5011039;28;20054;-64
2021/05/29 01:07:14;;;;;;;4.25;3.85;;;20.80;40.50;;;;;;5009456;28;20026;-64
2021/05/29 01:09:41;;;;;;;6.18;4.10;;;20.70;40.20;;;;;;4997378;28;20038;-63
2021/05/29 01:12:09;;;;;;;5.43;3.67;;;20.70;40.20;;;;;;5010166;28;20048;-63
2021/05/29 01:14:45;;;;;;;5.50;3.83;;;20.70;40.10;;;;;;4999272;28;20045;-63
2021/05/29 01:17:11;;;;;;;5.60;4.10;;;20.70;40.30;;;;;;4999072;28;20403;-63
2021/05/29 01:19:37;;;;;;;6.32;3.25;;;20.70;39.90;;;;;;5008904;28;20041;-63
2021/05/29 01:22:08;;;;;;;5.95;3.38;;;20.60;39.70;;;;;;5006237;28;20496;-63
2021/05/29 01:24:34;;;;;;;4.25;3.30;;;20.70;39.90;;;;;;4997665;28;20385;-63
2021/05/29 01:27:00;;;;;;;5.43;3.45;;;20.60;40.00;;;;;;4996375;28;20053;-63
2021/05/29 01:29:26;;;;;;;4.63;3.45;;;20.50;39.80;;;;;;5020889;28;20049;-64
2021/05/29 01:32:01;;;;;;;5.68;3.70;;;20.50;39.40;;;;;;4998194;28;20053;-65
2021/05/29 01:34:33;;;;;;;4.03;2.60;;;20.50;39.80;;;;;;5009318;28;20053;-64
2021/05/29 01:37:04;;;;;;;3.00;2.67;;;20.50;39.60;;;;;;5000508;28;20046;-64
2021/05/29 01:39:31;;;;;;;5.38;3.17;;;20.60;40.00;;;;;;5007760;28;20045;-64
2021/05/29 01:41:58;;;;;;;7.57;3.17;;;20.50;39.50;;;;;;5008238;28;20056;-64
2021/05/29 01:44:24;;;;;;;4.07;2.90;;;20.50;39.50;;;;;;5011112;28;20046;-64
2021/05/29 01:46:51;;;;;;;3.45;3.15;;;20.50;39.40;;;;;;5002170;28;20053;-64
2021/05/29 01:49:17;;;;;;;5.40;3.28;;;20.50;39.80;;;;;;5016789;28;20042;-64
2021/05/29 01:51:43;;;;;;;4.63;3.17;;;20.50;39.30;;;;;;5005451;28;20116;-64
2021/05/29 01:54:10;;;;;;;4.55;3.38;;;20.40;38.70;;;;;;4998240;28;20474;-64
2021/05/29 01:56:35;;;;;;;7.80;2.72;;;20.30;39.20;;;;;;5014312;28;20095;-64
2021/05/29 01:59:01;;;;;;;4.15;2.70;;;20.40;39.20;;;;;;5013083;28;20049;-64
2021/05/29 02:01:27;;;;;;;3.58;2.63;;;20.40;39.00;;;;;;5014577;28;20080;-64
2021/05/29 02:03:52;;;;;;;4.03;2.85;;;20.40;39.10;;;;;;5011466;28;20561;-64
2021/05/29 02:06:18;;;;;;;7.78;2.97;;;20.30;39.00;;;;;;5013115;28;20096;-64
2021/05/29 02:08:44;;;;;;;3.63;2.42;;;20.30;39.10;;;;;;5000921;28;20042;-64
2021/05/29 02:11:10;;;;;;;3.05;2.58;;;20.30;39.20;;;;;;5014576;28;20478;-64
2021/05/29 02:13:38;;;;;;;7.25;2.60;;;20.30;39.30;;;;;;5006066;28;20044;-63
2021/05/29 02:16:05;;;;;;;3.00;2.60;;;20.30;39.10;;;;;;5005895;28;20120;-64
2021/05/29 02:18:32;;;;;;;3.08;2.88;;;20.20;39.00;;;;;;5007468;28;20065;-64
2021/05/29 02:21:05;;;;;;;5.13;2.45;;;20.20;39.10;;;;;;5000069;28;20137;-64
2021/05/29 02:23:42;;;;;;;2.65;2.45;;;20.20;39.20;;;;;;5002460;28;20042;-64
2021/05/29 02:26:12;;;;;;;2.60;2.40;;;20.20;39.50;;;;;;5015153;28;20029;-64
2021/05/29 02:28:40;;;;;;;3.60;2.40;;;20.20;39.10;;;;;;5009220;28;20499;-64
2021/05/29 02:31:07;;;;;;;4.25;3.03;;;20.20;39.20;;;;;;5013541;28;20124;-64
2021/05/29 02:33:34;;;;;;;5.50;2.65;;;20.20;39.30;;;;;;5010296;28;20041;-64
2021/05/29 02:36:01;;;;;;;5.18;2.55;;;20.10;39.20;;;;;;5009802;28;20049;-64
2021/05/29 02:38:28;;;;;;;4.43;2.40;;;20.10;39.20;;;;;;5015974;28;20495;-65
2021/05/29 02:40:55;;;;;;;4.20;2.83;;;20.10;39.40;;;;;;5014394;28;20053;-64
2021/05/29 02:43:22;;;;;;;2.85;2.55;;;20.10;39.70;;;;;;5000172;28;20049;-64
2021/05/29 02:45:48;;;;;;;3.85;2.47;;;20.10;39.30;;;;;;5016038;28;20105;-64
2021/05/29 02:48:14;;;;;;;4.38;2.85;;;20.10;39.10;;;;;;4997313;28;20057;-64
2021/05/29 02:50:41;;;;;;;2.65;2.40;;;20.00;39.20;;;;;;5008997;28;20100;-64
2021/05/29 02:53:09;;;;;;;3.85;2.50;;;20.00;39.30;;;;;;5018611;28;20379;-64
2021/05/29 02:55:36;;;;;;;3.38;2.30;;;19.90;39.20;;;;;;5005991;28;20053;-64
2021/05/29 02:58:02;;;;;;;2.60;2.35;;;20.00;39.20;;;;;;5010162;28;20191;-64
2021/05/29 03:00:31;;;;;;;3.92;2.38;;;20.10;39.20;;;;;;5003942;28;20056;-62
2021/05/29 03:02:57;;;;;;;3.95;2.40;;;20.10;39.10;;;;;;5019553;28;20038;-64
2021/05/29 03:05:23;;;;;;;4.18;2.58;;;20.00;39.00;;;;;;5017790;28;20037;-64
2021/05/29 03:07:51;;;;;;;3.35;2.17;;;20.00;39.00;;;;;;5020607;28;20466;-64
2021/05/29 03:10:18;;;;;;;4.38;1.90;;;20.00;38.90;;;;;;5016590;28;20442;-64
2021/05/29 03:12:44;;;;;;;4.68;2.45;;;20.00;38.80;;;;;;5014169;28;20044;-64
2021/05/29 03:15:14;;;;;;;5.40;2.80;;;19.90;38.90;;;;;;5012113;28;20053;-64
2021/05/29 03:17:40;;;;;;;3.30;2.60;;;19.90;38.70;;;;;;5008379;28;20045;-64
2021/05/29 03:20:08;;;;;;;3.53;2.55;;;19.90;38.80;;;;;;5016045;28;20050;-63
2021/05/29 03:22:34;;;;;;;3.00;2.42;;;19.90;38.40;;;;;;5014079;28;20038;-64
2021/05/29 03:25:00;;;;;;;2.30;2.10;;;19.90;38.40;;;;;;4996941;28;20469;-64
2021/05/29 03:27:26;;;;;;;3.17;2.88;;;19.90;38.50;;;;;;5018288;28;20087;-64
2021/05/29 03:29:54;;;;;;;2.45;2.10;;;19.90;38.40;;;;;;5007281;28;20091;-64
2021/05/29 03:32:20;;;;;;;2.67;2.47;;;20.00;38.10;;;;;;5014677;28;20372;-64
2021/05/29 03:34:46;;;;;;;4.20;2.63;;;19.90;38.20;;;;;;5019600;28;20044;-64
2021/05/29 03:37:11;;;;;;;4.07;2.13;;;19.90;38.50;;;;;;5003315;28;20038;-64
2021/05/29 03:39:39;;;;;;;2.97;2.50;;;19.80;38.00;;;;;;5004222;28;20042;-63
2021/05/29 03:42:05;;;;;;;7.22;2.53;;;19.80;37.80;;;;;;5007957;28;20046;-64
2021/05/29 03:44:30;;;;;;;4.45;2.40;;;19.90;38.00;;;;;;5019259;28;20034;-63
2021/05/29 03:46:56;;;;;;;4.35;2.15;;;19.90;38.00;;;;;;5001425;28;20048;-65
2021/05/29 03:49:22;;;;;;;5.53;2.85;;;20.00;37.90;;;;;;5007999;28;20132;-64
2021/05/29 03:51:48;;;;;;;4.03;3.35;;;19.90;37.70;;;;;;5007062;28;20047;-64
2021/05/29 03:54:13;;;;;;;2.40;2.20;;;19.80;37.80;;;;;;5018981;28;20041;-63
2021/05/29 03:56:39;;;;;;;2.63;2.33;;;19.90;37.70;;;;;;5004052;28;20054;-63
2021/05/29 03:59:05;;;;;;;4.28;2.55;;;19.90;37.50;;;;;;5015939;28;20041;-63
2021/05/29 04:01:31;;;;;;;5.80;2.80;;;19.90;37.50;;;;;;5014863;28;20519;-63
2021/05/29 04:03:57;;;;;;;3.75;2.35;;;20.00;37.70;;;;;;5017797;28;20105;-63
2021/05/29 04:06:23;;;;;;;2.78;2.20;;;19.90;37.60;;;;;;5012621;28;20042;-64
2021/05/29 04:08:49;;;;;;;3.22;2.90;;;19.90;37.80;;;;;;5015853;28;20091;-63
2021/05/29 04:11:15;;;;;;;2.72;2.50;;;19.90;37.50;;;;;;5013889;28;20041;-64
2021/05/29 04:13:41;;;;;;;2.85;2.33;;;19.90;37.60;;;;;;4994063;28;20115;-63
2021/05/29 04:16:07;;;;;;;3.08;2.70;;;20.00;37.60;;;;;;5006397;28;20042;-63
2021/05/29 04:18:32;;;;;;;2.80;2.38;;;19.90;37.50;;;;;;5006429;28;20029;-64
2021/05/29 04:20:58;;;;;;;2.50;2.30;;;19.90;38.00;;;;;;5001950;28;20062;-63
2021/05/29 04:23:24;;;;;;;2.33;2.13;;;19.80;37.60;;;;;;5013571;28;20099;-64
2021/05/29 04:25:49;;;;;;;2.53;2.33;;;19.90;37.60;;;;;;5005886;28;20042;-64
2021/05/29 04:28:15;;;;;;;2.13;1.92;;;19.90;37.40;;;;;;5002099;28;20037;-64
2021/05/29 04:30:41;;;;;;;2.30;2.15;;;19.90;37.30;;;;;;5003428;28;20744;-68
2021/05/29 04:33:07;;;;;;;3.22;1.83;;;19.90;37.30;;;;;;5015191;28;20041;-63
2021/05/29 04:35:32;;;;;;;2.33;2.15;;;20.00;37.60;;;;;;5016908;28;20141;-63
2021/05/29 04:37:58;;;;;;;3.17;2.10;;;19.90;37.30;;;;;;5017012;28;20384;-62
2021/05/29 04:40:26;;;;;;;2.33;2.13;;;19.90;37.20;;;;;;5021217;28;20065;-64
2021/05/29 04:42:53;;;;;;;2.78;2.13;;;19.80;37.30;;;;;;5015141;28;20056;-63
2021/05/29 04:45:19;;;;;;;4.70;2.70;;;19.90;37.50;;;;;;5019499;28;20136;-64
2021/05/29 04:47:45;;;;;;;2.42;2.20;;;19.90;37.50;;;;;;5001548;28;20033;-64
2021/05/29 04:50:13;;;;;;;5.53;2.60;;;19.90;37.40;;;;;;5019638;28;20041;-63
2021/05/29 04:52:39;;;;;;;3.25;2.95;;;20.00;37.50;;;;;;5021942;28;20033;-63
2021/05/29 04:55:06;;;;;;;2.90;2.63;;;20.00;37.30;;;;;;5017105;28;20049;-63
2021/05/29 04:57:32;;;;;;;5.82;2.85;;;20.00;37.40;;;;;;5024119;28;20049;-65
2021/05/29 04:59:57;;;;;;;4.15;2.30;;;20.00;37.50;;;;;;5019985;28;20051;-63
2021/05/29 05:02:23;;;;;;;5.80;3.60;;;20.00;37.50;;;;;;5020042;28;20151;-64
2021/05/29 05:04:49;;;;;;;2.78;2.58;;;19.90;37.50;;;;;;5018740;28;20037;-64
2021/05/29 05:07:15;;;;;;;3.20;2.45;;;20.00;37.60;;;;;;5018388;28;20061;-64
2021/05/29 05:09:41;;;;;;;3.08;2.75;;;19.90;37.70;;;;;;5020577;28;20061;-64
2021/05/29 05:12:07;;;;;;;3.30;2.50;;;20.00;37.60;;;;;;5026826;28;20068;-63
2021/05/29 05:14:33;;;;;;;2.92;2.63;;;20.00;37.70;;;;;;5035562;28;20073;-64
2021/05/29 05:16:58;;;;;;;4.30;2.72;;;20.00;37.80;;;;;;5023744;28;20113;-63
2021/05/29 05:19:24;;;;;;;2.47;2.38;;;20.00;37.60;;;;;;5025485;28;20042;-63
2021/05/29 05:21:50;;;;;;;2.95;2.60;;;20.10;37.60;;;;;;5021939;28;20084;-62
2021/05/29 05:24:15;;;;;;;2.47;1.92;;;20.00;37.50;;;;;;5021950;28;20088;-63
2021/05/29 05:26:41;;;;;;;4.20;2.70;;;19.90;37.90;;;;;;5022996;28;20442;-63
2021/05/29 05:29:07;;;;;;;3.53;2.70;;;20.00;37.70;;;;;;5027808;28;20450;-63
2021/05/29 05:31:33;;;;;;;2.50;2.22;;;20.00;37.80;;;;;;5025087;28;20480;-63
2021/05/29 05:34:06;;;;;;;2.80;2.60;;;20.10;37.90;;;;;;5014523;28;20091;-63
2021/05/29 05:36:32;;;;;;;3.78;2.63;;;20.00;37.70;;;;;;5020838;28;20132;-63
2021/05/29 05:38:58;;;;;;;3.47;2.75;;;20.00;37.90;;;;;;5010592;28;20125;-63
2021/05/29 05:41:23;;;;;;;2.88;2.67;;;20.10;37.80;;;;;;5013274;28;20095;-62
2021/05/29 05:43:49;;;;;;;2.88;2.55;;;20.10;38.00;;;;;;5008130;28;20042;-64
2021/05/29 05:46:16;;;;;;;3.95;2.58;;;20.10;38.00;;;;;;5044067;28;20041;-64
2021/05/29 05:48:42;;;;;;;2.80;2.40;;;20.10;38.20;;;;;;5009076;28;20034;-64
2021/05/29 05:51:08;;;;;;;5.28;2.53;;;20.10;38.30;;;;;;4999683;28;20108;-64
2021/05/29 05:53:34;;;;;;;5.90;2.97;;;20.20;38.20;;;;;;5012784;28;20049;-62
2021/05/29 05:56:03;;;;;;;5.80;3.03;;;20.20;38.10;;;;;;5017113;28;20434;-61
2021/05/29 05:58:32;;;;;;;3.92;2.53;;;20.30;38.20;;;;;;5021785;28;20120;-62
2021/05/29 06:01:01;;;;;;;4.15;2.55;;;20.40;38.20;;;;;;5018518;28;20587;-62
2021/05/29 06:03:27;;;;;;;5.72;2.90;;;20.50;38.20;;;;;;5003433;28;20444;-63
2021/05/29 06:05:53;;;;;;;3.15;2.28;;;20.50;38.10;;;;;;5010392;28;20038;-63
2021/05/29 06:08:19;;;;;;;3.03;2.35;;;20.40;38.20;;;;;;5021062;28;20054;-63
2021/05/29 06:10:49;;;;;;;2.60;2.40;;;20.40;38.20;;;;;;5026318;28;20093;-63
2021/05/29 06:13:17;;;;;;;4.32;2.47;;;20.40;38.10;;;;;;5003196;28;20042;-63
2021/05/29 06:20:58;;;;;;;3.28;2.33;;;20.50;38.30;;;;;;5025595;28;20395;-63
2021/05/29 06:23:24;;;;;;;2.95;2.22;;;20.60;38.30;;;;;;5022029;28;20052;-63
2021/05/29 06:25:49;;;;;;;2.33;2.00;;;20.50;38.20;;;;;;5018749;28;20476;-63
2021/05/29 06:28:15;;;;;;;2.90;2.40;;;20.60;38.20;;;;;;5015915;28;20039;-64
2021/05/29 06:30:40;;;;;;;2.42;2.05;;;20.70;38.50;;;;;;5006563;28;20554;-64
2021/05/29 06:33:07;;;;;;;2.78;2.33;;;20.70;38.30;;;;;;5005304;28;20214;-63
2021/05/29 06:35:33;;;;;;;3.75;2.40;;;20.80;38.30;;;;;;5014313;28;20116;-63
2021/05/29 06:37:59;;;;;;;3.30;2.30;;;20.80;38.60;;;;;;4998582;28;20217;-62
2021/05/29 06:40:25;;;;;;;4.00;2.33;;;20.80;38.70;;;;;;5019937;28;20050;-63
2021/05/29 06:42:51;;;;;;;3.10;2.80;;;20.80;38.60;;;;;;5010474;28;20052;-62
2021/05/29 06:45:16;;;;;;;5.25;2.90;;;20.70;38.70;;;;;;5011648;28;20061;-62
2021/05/29 06:47:42;;;;;;;4.18;2.70;;;20.90;38.80;;;;;;5020867;28;20037;-62
2021/05/29 06:50:09;;;;;;;5.78;2.50;;;21.00;38.70;;;;;;5017059;28;20395;-63
2021/05/29 06:52:37;;;;;;;6.43;3.08;;;21.10;38.80;;;;;;5007806;28;20046;-63
2021/05/29 07:00:32;;;;;;;3.20;2.40;;;21.00;39.00;;;;;;5027476;28;20048;-63
2021/05/29 07:02:58;;;;;;;5.13;2.42;;;21.10;38.80;;;;;;5010921;28;20034;-62
2021/05/29 07:05:24;;;;;;;2.13;1.88;;;21.30;38.80;;;;;;5012434;28;20056;-62
2021/05/29 07:07:49;;;;;;;7.05;2.88;;;21.30;38.50;;;;;;5012447;28;20030;-63
2021/05/29 07:10:15;;;;;;;2.75;2.55;;;21.30;38.50;;;;;;5003989;28;20037;-63
2021/05/29 07:12:41;;;;;;;5.07;2.20;;;21.30;38.10;;;;;;5022997;28;20116;-62
2021/05/29 07:15:08;;;;;;;2.58;2.30;;;21.10;38.20;;;;;;5014550;28;20052;-63
2021/05/29 07:17:39;;;;;;;8.13;2.47;;;21.10;38.20;;;;;;5022040;28;20037;-62
2021/05/29 07:20:05;;;;;;;2.70;2.50;;;21.10;38.50;;;;;;5018066;28;20056;-62
2021/05/29 07:22:31;;;;;;;5.10;2.58;;;21.10;38.60;;;;;;5016811;28;20042;-62
2021/05/29 07:24:56;;;;;;;4.07;2.47;;;21.20;38.50;;;;;;5016007;28;20049;-63
2021/05/29 07:27:22;;;;;;;3.80;2.47;;;21.20;38.70;;;;;;5023040;28;20034;-63
2021/05/29 07:29:47;;;;;;;3.28;2.45;;;21.30;38.70;;;;;;4999762;28;20121;-63
2021/05/29 07:32:13;;;;;;;2.72;2.50;;;21.30;38.50;;;;;;5031922;28;20053;-63
2021/05/29 07:34:39;;;;;;;4.00;2.38;;;21.30;38.60;;;;;;5009982;28;20392;-63
2021/05/29 07:37:07;;;;;;;2.40;2.20;;;21.30;38.60;;;;;;5024137;28;20685;-62
2021/05/29 07:39:33;;;;;;;4.05;2.88;;;21.30;38.50;;;;;;5015077;28;20870;-62
2021/05/29 07:41:58;;;;;;;4.93;3.28;;;21.30;38.20;;;;;;5023467;28;20041;-63
2021/05/29 07:44:24;;;;;;;3.38;2.47;;;21.30;37.90;;;;;;5029213;28;20033;-62
2021/05/29 07:46:50;;;;;;;3.67;2.83;;;21.40;37.80;;;;;;5017467;28;20049;-63
2021/05/29 07:49:15;;;;;;;4.13;2.55;;;21.50;37.90;;;;;;5026379;28;20087;-63
2021/05/29 07:51:41;;;;;;;2.60;2.45;;;21.50;37.30;;;;;;5018204;28;20045;-63
2021/05/29 07:54:09;;;;;;;2.35;2.15;;;21.60;37.20;;;;;;5025625;28;20037;-63
2021/05/29 07:56:35;;;;;;;2.53;2.00;;;21.70;37.30;;;;;;4997836;28;20141;-63
2021/05/29 07:59:06;;;;;;;2.00;1.90;;;21.70;36.70;;;;;;5013655;28;20120;-62
2021/05/29 08:01:33;;;;;;;1.85;1.75;;;21.80;36.40;;;;;;5008046;28;20492;-63
2021/05/29 08:03:59;;;;;;;3.42;2.03;;;21.80;36.10;;;;;;5006856;28;20100;-63
2021/05/29 08:06:26;;;;;;;2.40;1.80;;;21.90;35.80;;;;;;4993741;28;20606;-63
2021/05/29 08:08:52;;;;;;;3.42;2.25;;;21.90;36.00;;;;;;5022776;28;20108;-62
2021/05/29 08:11:21;;;;;;;2.03;1.70;;;22.00;35.90;;;;;;5005737;28;20085;-64
2021/05/29 08:13:49;;;;;;;1.55;1.33;;;22.00;35.20;;;;;;5024955;28;20037;-63
2021/05/29 08:16:15;;;;;;;1.63;1.52;;;22.00;34.70;;;;;;5007247;28;20050;-63
2021/05/29 08:18:42;;;;;;;1.45;1.30;;;22.10;34.20;;;;;;5009139;28;20349;-62
2021/05/29 08:21:08;;;;;;;3.33;1.90;;;22.10;33.50;;;;;;5000338;28;20052;-62
2021/05/29 08:23:33;;;;;;;1.52;1.42;;;22.30;33.30;;;;;;5016081;28;20060;-61
2021/05/29 08:26:00;;;;;;;2.72;1.88;;;22.40;33.40;;;;;;5017494;28;20440;-62
2021/05/29 08:28:25;;;;;;;2.40;1.70;;;22.50;33.30;;;;;;5014801;28;20053;-64
2021/05/29 08:30:51;;;;;;;1.80;1.70;;;22.50;33.50;;;;;;5016463;28;20061;-63
2021/05/29 08:33:17;;;;;;;2.95;2.50;;;22.50;33.30;;;;;;5006653;28;20131;-62
2021/05/29 08:35:42;;;;;;;2.70;2.17;;;22.60;33.70;;;;;;5012814;28;20034;-63
2021/05/29 08:38:08;;;;;;;2.15;1.85;;;22.70;34.00;;;;;;5010263;28;20046;-62
2021/05/29 08:40:34;;;;;;;1.85;1.75;;;22.70;33.90;;;;;;5011760;28;20096;-62
2021/05/29 08:43:00;;;;;;;1.98;1.80;;;22.80;34.00;;;;;;5009181;28;20030;-63
2021/05/29 08:45:26;;;;;;;3.03;2.00;;;22.80;32.90;;;;;;5015647;28;20036;-62
2021/05/29 08:47:52;;;;;;;2.67;1.65;;;22.80;33.10;;;;;;5006243;28;20041;-63
2021/05/29 08:50:19;;;;;;;2.30;2.10;;;22.80;32.60;;;;;;5019113;28;20042;-63
2021/05/29 08:52:45;;;;;;;6.50;2.55;;;22.90;32.70;;;;;;5005720;28;20065;-62
2021/05/29 08:55:13;;;;;;;2.50;2.30;;;22.90;33.30;;;;;;5011995;28;20078;-62
2021/05/29 08:57:40;;;;;;;8.40;2.22;;;23.10;33.40;;;;;;4994062;28;22146;-63
2021/05/29 09:00:12;;;;;;;2.40;1.70;;;23.10;32.40;;;;;;5018271;28;22205;-63
2021/05/29 09:03:00;;;;;;;2.00;1.77;;;23.10;32.10;;;;;;5019362;28;20486;-63
2021/05/29 09:05:50;;;;;;;5.13;2.28;;;23.20;31.30;;;;;;5016124;28;20040;-63
2021/05/29 09:08:17;;;;;;;3.35;2.05;;;23.20;30.60;;;;;;4981341;28;20072;-63
2021/05/29 09:10:50;;;;;;;3.22;2.33;;;23.20;31.60;;;;;;5027390;28;20055;-64
2021/05/29 09:13:19;;;;;;;2.60;2.40;;;23.20;31.30;;;;;;5016267;28;20713;-63
2021/05/29 09:15:52;;;;;;;3.45;2.10;;;23.10;31.20;;;;;;5017771;28;20033;-64
2021/05/29 09:18:48;;;;;;;3.78;2.35;;;23.20;31.00;;;;;;5019350;28;20040;-63
2021/05/29 09:21:28;;;;;;;5.43;2.15;;;23.30;30.50;;;;;;4966047;28;20456;-62
2021/05/29 09:23:53;;;;;;;2.17;1.92;;;23.40;31.20;;;;;;5008676;28;20471;-63
2021/05/29 09:26:22;;;;;;;2.13;2.03;;;23.40;30.60;;;;;;5011178;28;20087;-62
2021/05/29 09:28:48;;;;;;;1.90;1.70;;;23.30;30.40;;;;;;5005105;28;20116;-62
2021/05/29 09:31:14;;;;;;;3.25;2.28;;;23.50;30.50;;;;;;5008155;28;20064;-61
2021/05/29 09:33:45;;;;;;;4.80;2.50;;;23.50;30.40;;;;;;5013170;28;20555;-63
2021/05/29 09:36:15;;;;;;;2.45;2.03;;;23.60;29.80;;;;;;5022651;28;20451;-63
2021/05/29 09:38:44;;;;;;;4.05;2.25;;;23.70;29.60;;;;;;5011189;28;20045;-62
2021/05/29 09:41:30;;;;;;;4.03;2.58;;;23.80;29.70;;;;;;5016764;28;20140;-62
2021/05/29 09:43:59;;;;;;;2.63;2.25;;;23.90;28.80;;;;;;5015876;28;20562;-63
2021/05/29 09:46:26;;;;;;;2.97;2.08;;;23.90;29.40;;;;;;5013857;28;20430;-63
2021/05/29 09:49:01;;;;;;;4.18;1.95;;;23.90;29.20;;;;;;5010096;28;20076;-63
2021/05/29 09:51:32;;;;;;;5.25;2.42;;;24.00;29.00;;;;;;5011354;28;20029;-62
2021/05/29 09:54:10;;;;;;;2.70;1.90;;;24.00;29.20;;;;;;5007914;28;20066;-61
2021/05/29 09:56:40;;;;;;;4.35;2.80;;;24.00;28.90;;;;;;5016176;28;20064;-64
2021/05/29 09:59:19;;;;;;;3.13;2.92;;;24.00;29.40;;;;;;5020462;28;20034;-62
2021/05/29 10:01:45;;;;;;;3.60;2.60;;;24.00;28.90;;;;;;5019434;28;20052;-63
2021/05/29 10:04:13;;;;;;;4.22;2.85;;;24.10;28.90;;;;;;5009209;28;20022;-62
2021/05/29 10:06:38;;;;;;;3.35;2.25;;;24.10;28.90;;;;;;5012957;28;20045;-62
2021/05/29 10:09:05;;;;;;;3.30;3.00;;;24.10;29.20;;;;;;5023096;28;20475;-63
2021/05/29 10:11:32;;;;;;;8.00;3.05;;;24.10;28.90;;;;;;5008777;28;20116;-62
2021/05/29 10:13:58;;;;;;;5.10;2.92;;;24.10;28.40;;;;;;5019519;28;20084;-62
2021/05/29 10:16:48;;;;;;;2.05;1.92;;;24.20;28.70;;;;;;5013013;28;20049;-62
2021/05/29 10:19:15;;;;;;;4.57;2.75;;;24.50;28.70;;;;;;4974059;28;20088;-62
2021/05/29 10:21:41;;;;;;;2.97;2.65;;;24.70;28.70;;;;;;5022229;28;20044;-61
2021/05/29 10:24:08;;;;;;;6.05;3.10;;;24.70;28.80;;;;;;5012571;28;20034;-60
2021/05/29 10:26:36;;;;;;;3.08;2.88;;;24.80;28.90;;;;;;5019292;28;20071;-60
2021/05/29 10:29:02;;;;;;;5.18;2.88;;;24.80;28.90;;;;;;5025335;28;20034;-61
2021/05/29 10:31:32;;;;;;;3.88;2.70;;;24.80;28.90;;;;;;5023833;28;20038;-60
2021/05/29 10:33:58;;;;;;;5.43;3.85;;;24.80;28.90;;;;;;5016367;28;20117;-61
2021/05/29 10:36:45;;;;;;;6.38;3.25;;;24.80;28.70;;;;;;5029096;28;20037;-62
2021/05/29 10:39:23;;;;;;;2.60;2.40;;;24.80;28.10;;;;;;4996050;28;20133;-62
2021/05/29 10:41:52;;;;;;;4.95;3.65;;;24.80;28.70;;;;;;5022307;28;20517;-62
2021/05/29 10:44:33;;;;;;;4.22;3.47;;;24.80;29.00;;;;;;5019052;28;20431;-62
2021/05/29 10:47:20;;;;;;;5.50;4.25;;;24.80;29.40;;;;;;5024410;28;20060;-62
2021/05/29 10:49:50;;;;;;;4.00;3.70;;;24.90;29.00;;;;;;4996841;28;20459;-62
2021/05/29 10:52:30;;;;;;;4.88;4.47;;;25.00;28.90;;;;;;5014430;28;20052;-62
2021/05/29 10:55:20;;;;;;;4.57;4.07;;;25.10;28.20;;;;;;5013409;28;20041;-62
2021/05/29 10:57:56;;;;;;;5.20;3.80;;;25.40;28.30;;;;;;4987040;28;20091;-62
2021/05/29 11:00:40;;;;;;;6.10;4.25;;;25.80;27.60;;;;;;5011029;28;20053;-62
2021/05/29 11:03:21;;;;;;;4.97;4.57;;;26.10;27.10;;;;;;5013306;28;20457;-62
2021/05/29 11:05:57;;;;;;;5.40;3.97;;;26.40;27.20;;;;;;5015849;28;20030;-62
2021/05/29 11:08:47;;;;;;;5.80;4.70;;;26.70;27.20;;;;;;5003866;28;20049;-62
2021/05/29 11:14:16;;;;;;;7.10;5.40;;;27.40;25.70;;;;;;4975032;28;20523;-62
2021/05/29 11:17:09;;;;;;;8.20;4.97;;;27.90;25.70;;;;;;5022206;28;20033;-62
2021/05/29 11:19:36;;;;;;;6.45;5.00;;;28.70;41.00;;;;;;5007880;28;20518;-62
2021/05/29 11:22:11;;;;;;;5.97;5.38;;;28.50;26.10;;;;;;5007090;28;20073;-62
2021/05/29 11:24:49;;;;;;;5.57;5.07;;;28.60;25.00;;;;;;5005599;28;20079;-62
2021/05/29 11:27:20;;;;;;;5.72;5.25;;;28.60;25.00;;;;;;5007987;28;20030;-63
2021/05/29 11:30:01;;;;;;;6.13;5.30;;;28.00;25.50;;;;;;5003049;28;20042;-62
2021/05/29 11:32:40;;;;;;;5.75;5.00;;;27.70;26.00;;;;;;5023859;28;20056;-62
2021/05/29 11:35:07;;;;;;;5.90;5.30;;;27.50;26.10;;;;;;4985668;28;20497;-62
2021/05/29 11:37:32;;;;;;;8.07;6.03;;;27.40;26.30;;;;;;5005188;28;20054;-61
2021/05/29 11:39:58;;;;;;;8.40;5.20;;;27.50;26.30;;;;;;5004863;28;20387;-62
2021/05/29 11:42:23;;;;;;;5.80;5.22;;;27.30;26.00;;;;;;5006868;28;20120;-63
2021/05/29 11:44:49;;;;;;;6.18;5.50;;;27.50;26.30;;;;;;5003937;28;20035;-62
2021/05/29 11:47:16;;;;;;;6.22;5.50;;;27.90;26.10;;;;;;5016063;28;20153;-62
2021/05/29 11:49:42;;;;;;;7.47;6.40;;;28.10;25.50;;;;;;5018621;28;20384;-62
2021/05/29 11:52:08;;;;;;;7.82;5.95;;;28.30;25.40;;;;;;5022804;28;20041;-63
2021/05/29 11:54:37;;;;;;;21.85;14.60;;;28.80;25.20;;;;;;5010545;28;21307;-62
2021/05/29 11:57:04;;;;;;;36.53;26.15;;;29.00;25.40;;;;;;5008295;28;20049;-62
2021/05/29 11:59:30;;;;;;;20.25;14.20;;;28.90;25.40;;;;;;4999513;28;20539;-62
2021/05/29 12:01:56;;;;;;;23.63;20.17;;;29.00;25.30;;;;;;5009510;28;20145;-62
2021/05/29 12:04:23;;;;;;;33.70;26.08;;;29.00;25.50;;;;;;5008107;28;20037;-62
2021/05/29 12:06:56;;;;;;;16.95;12.90;;;29.30;25.00;;;;;;5005942;28;20034;-63
2021/05/29 12:09:26;;;;;;;9.50;7.90;;;29.50;28.80;;;;;;5008994;28;20045;-62
2021/05/29 12:11:56;;;;;;;48.30;36.13;;;29.50;24.50;;;;;;5016990;28;20044;-63
2021/05/29 12:14:23;;;;;;;20.20;17.60;;;29.30;28.00;;;;;;5018178;28;20496;-62
2021/05/29 12:17:01;;;;;;;13.07;8.75;;;29.40;24.70;;;;;;4987200;28;20099;-63
2021/05/29 12:19:29;;;;;;;13.80;11.77;;;29.80;25.00;;;;;;5002444;28;20037;-63
2021/05/29 12:21:57;;;;;;;21.88;16.80;;;30.10;24.50;;;;;;5007960;28;20041;-62
2021/05/29 12:24:24;;;;;;;15.43;12.68;;;30.20;24.50;;;;;;4999749;28;20096;-63
2021/05/29 12:26:51;;;;;;;29.17;23.60;;;30.60;24.60;;;;;;5013004;28;20091;-62
2021/05/29 12:29:22;;;;;;;8.73;7.82;;;30.80;24.70;;;;;;4993619;28;20165;-62
2021/05/29 12:31:57;;;;;;;9.77;8.07;;;30.50;24.30;;;;;;5000728;28;20047;-62
2021/05/29 12:34:24;;;;;;;12.65;10.07;;;30.50;24.40;;;;;;5012433;28;20029;-62
2021/05/29 12:37:02;;;;;;;9.65;7.88;;;30.60;24.50;;;;;;4996548;28;20042;-62
2021/05/29 12:39:49;;;;;;;8.90;8.00;;;30.40;24.30;;;;;;5001138;28;20507;-62
2021/05/29 12:42:28;;;;;;;8.52;7.82;;;30.40;24.60;;;;;;4984027;28;20057;-62
2021/05/29 12:44:57;;;;;;;9.35;8.25;;;30.50;24.60;;;;;;5006414;28;20037;-62
2021/05/29 12:47:31;;;;;;;14.05;10.32;;;30.50;24.60;;;;;;4992826;28;20076;-62
2021/05/29 12:49:58;;;;;;;10.50;7.40;;;31.00;24.70;;;;;;5001692;28;20091;-62
2021/05/29 12:52:26;;;;;;;9.88;8.73;;;31.10;24.90;;;;;;4998030;28;20043;-62
2021/05/29 12:54:52;;;;;;;12.63;8.30;;;31.60;24.60;;;;;;4990706;28;20042;-62
2021/05/29 12:57:18;;;;;;;7.93;7.13;;;32.30;24.10;;;;;;4994157;28;20100;-62
2021/05/29 12:59:45;;;;;;;8.82;7.93;;;32.80;23.60;;;;;;4990159;28;20045;-61
2021/05/29 13:07:38;;;;;;;7.95;7.18;;;34.30;23.00;;;;;;4991206;28;20067;-62
2021/05/29 13:12:33;;;;;;;8.05;6.32;;;34.40;21.90;;;;;;5014293;28;20041;-61